createdAt,value
2023-04-07T00:02:11.052Z,10.10
2023-04-07T00:06:32.942Z,13.38
2023-04-07T00:10:54.831Z,13.20
2023-04-07T00:15:17.082Z,11.88
2023-04-07T00:19:38.993Z,13.20
2023-04-07T00:24:00.860Z,14.77
2023-04-07T00:28:23.059Z,15.32
2023-04-07T00:32:45.633Z,14.38
2023-04-07T00:37:07.898Z,12.73
2023-04-07T00:41:30.272Z,14.77
2023-04-07T00:45:53.861Z,14.38
2023-04-07T00:50:15.593Z,14.45
2023-04-07T00:54:39.845Z,14.98
2023-04-07T00:59:04.655Z,13.65
2023-04-07T01:03:36.786Z,12.93
2023-04-07T01:07:59.097Z,12.48
2023-04-07T01:12:42.529Z,13.40
2023-04-07T01:17:09.308Z,12.43
2023-04-07T01:21:35.329Z,13.80
2023-04-07T01:26:38.032Z,13.75
2023-04-07T01:31:01.716Z,11.57
2023-04-07T01:35:25.744Z,13.20
2023-04-07T01:39:48.037Z,11.80
2023-04-07T01:44:10.994Z,11.73
2023-04-07T01:48:34.652Z,12.73
2023-04-07T01:52:57.512Z,12.55
2023-04-07T01:57:19.599Z,12.85
2023-04-07T02:01:44.186Z,12.02
2023-04-07T02:06:08.799Z,11.85
2023-04-07T02:10:35.593Z,12.05
2023-04-07T02:14:58.192Z,12.95
2023-04-07T02:19:21.052Z,12.98
2023-04-07T02:23:42.973Z,11.48
2023-04-07T02:28:06.795Z,14.35
2023-04-07T02:32:28.856Z,14.05
2023-04-07T02:36:50.957Z,14.70
2023-04-07T02:41:13.076Z,14.48
2023-04-07T02:45:35.003Z,13.82
2023-04-07T02:49:59.092Z,14.40
2023-04-07T02:54:21.333Z,17.55
2023-04-07T02:58:43.621Z,16.55
2023-04-07T03:03:06.851Z,16.30
2023-04-07T03:07:32.264Z,17.40
2023-04-07T03:11:56.053Z,16.25
2023-04-07T03:16:18.321Z,17.25
2023-04-07T03:21:00.570Z,16.58
2023-04-07T03:25:23.390Z,15.70
2023-04-07T03:29:47.204Z,15.65
2023-04-07T03:34:11.052Z,17.25
2023-04-07T03:38:34.550Z,15.18
2023-04-07T03:42:59.551Z,17.23
2023-04-07T03:47:21.731Z,16.17
2023-04-07T03:51:49.491Z,17.88
2023-04-07T03:56:13.590Z,17.10
2023-04-07T04:00:42.131Z,33.80
2023-04-07T04:05:07.264Z,19.45
2023-04-07T04:09:29.959Z,17.70
2023-04-07T04:13:52.376Z,17.10
2023-04-07T04:18:14.972Z,18.08
2023-04-07T04:22:37.635Z,16.23
2023-04-07T04:26:59.927Z,15.02
2023-04-07T04:31:21.956Z,15.55
2023-04-07T04:35:46.657Z,15.52
2023-04-07T04:40:15.559Z,14.80
2023-04-07T04:44:41.613Z,14.18
2023-04-07T04:49:04.593Z,14.18
2023-04-07T04:53:27.816Z,15.25
2023-04-07T04:57:54.255Z,13.45
2023-04-07T05:02:25.200Z,14.52
2023-04-07T05:06:47.303Z,12.00
2023-04-07T05:11:13.154Z,10.23
2023-04-07T05:15:36.953Z,7.93
2023-04-07T05:20:05.112Z,7.78
2023-04-07T05:24:32.946Z,29.52
2023-04-07T05:28:56.707Z,6.93
2023-04-07T05:33:21.793Z,6.78
2023-04-07T05:37:47.294Z,6.38
2023-04-07T05:42:09.492Z,6.70
2023-04-07T05:46:33.441Z,10.35
2023-04-07T05:50:55.813Z,10.05
2023-04-07T05:55:18.213Z,11.48
2023-04-07T05:59:40.698Z,9.50
2023-04-07T06:04:03.688Z,9.52
2023-04-07T06:08:26.040Z,9.15
2023-04-07T06:12:48.493Z,8.50
2023-04-07T06:17:11.157Z,8.73
2023-04-07T06:21:34.694Z,8.15
2023-04-07T06:26:00.654Z,7.40
2023-04-07T06:30:24.818Z,7.05
2023-04-07T06:34:47.532Z,6.50
2023-04-07T06:39:09.872Z,5.95
2023-04-07T06:43:32.090Z,9.15
2023-04-07T06:47:58.101Z,8.77
2023-04-07T06:52:20.517Z,7.60
2023-04-07T06:56:43.983Z,6.43
2023-04-07T07:01:06.971Z,6.03
2023-04-07T07:05:28.898Z,6.78
2023-04-07T07:09:50.833Z,7.93
2023-04-07T07:14:13.005Z,7.30
2023-04-07T07:18:37.172Z,7.80
2023-04-07T07:23:00.013Z,6.40
2023-04-07T07:27:21.856Z,6.30
2023-04-07T07:31:44.157Z,5.82
2023-04-07T07:36:06.658Z,5.93
2023-04-07T07:40:28.955Z,6.72
2023-04-07T07:44:51.240Z,6.35
2023-04-07T07:49:13.114Z,6.15
2023-04-07T07:53:35.183Z,6.45
2023-04-07T07:57:57.245Z,6.57
2023-04-07T08:02:19.457Z,7.22
2023-04-07T08:06:42.962Z,6.13
2023-04-07T08:11:05.517Z,6.32
2023-04-07T08:15:27.538Z,6.13
2023-04-07T08:19:49.370Z,5.15
2023-04-07T08:24:11.487Z,4.75
2023-04-07T08:28:33.692Z,4.22
2023-04-07T08:32:55.536Z,4.22
2023-04-07T08:37:17.362Z,5.72
2023-04-07T08:41:45.191Z,4.20
2023-04-07T08:46:11.516Z,3.80
2023-04-07T08:50:34.297Z,6.13
2023-04-07T08:54:56.490Z,6.13
2023-04-07T08:59:18.784Z,4.28
2023-04-07T09:03:41.440Z,3.42
2023-04-07T09:08:03.878Z,4.30
2023-04-07T09:12:27.467Z,4.47
2023-04-07T09:16:49.378Z,5.93
2023-04-07T09:21:12.386Z,5.85
2023-04-07T09:25:35.356Z,6.25
2023-04-07T09:30:17.978Z,5.85
2023-04-07T09:34:41.589Z,6.22
2023-04-07T09:39:09.809Z,6.90
2023-04-07T09:43:31.940Z,6.13
2023-04-07T09:47:55.664Z,6.00
2023-04-07T09:52:18.504Z,5.55
2023-04-07T09:56:40.594Z,6.18
2023-04-07T10:01:02.750Z,5.50
2023-04-07T10:05:26.023Z,5.40
2023-04-07T10:09:48.201Z,5.78
2023-04-07T10:14:52.747Z,5.90
2023-04-07T10:20:06.753Z,5.55
2023-04-07T10:25:27.342Z,6.20
2023-04-07T10:30:41.182Z,6.18
2023-04-07T10:35:09.932Z,5.43
2023-04-07T10:39:31.794Z,5.85
2023-04-07T10:43:53.973Z,5.72
2023-04-07T10:48:18.467Z,6.10
2023-04-07T10:52:41.114Z,5.47
2023-04-07T10:57:03.193Z,6.15
2023-04-07T11:01:25.588Z,5.47
2023-04-07T11:05:47.927Z,5.78
2023-04-07T11:10:12.817Z,5.80
2023-04-07T11:14:37.911Z,6.43
2023-04-07T11:19:00.112Z,6.15
2023-04-07T11:23:25.437Z,6.75
2023-04-07T11:27:47.968Z,6.97
2023-04-07T11:32:09.868Z,6.90
2023-04-07T11:36:42.593Z,7.15
2023-04-07T11:41:13.760Z,7.65
2023-04-07T11:45:35.708Z,8.57
2023-04-07T11:49:58.013Z,7.97
2023-04-07T11:54:20.396Z,7.03
2023-04-07T11:58:49.194Z,8.00
2023-04-07T12:03:14.585Z,7.53
2023-04-07T12:07:38.600Z,8.15
2023-04-07T12:12:00.866Z,6.80
2023-04-07T12:16:23.251Z,7.63
2023-04-07T12:20:45.533Z,8.15
2023-04-07T12:25:08.155Z,7.90
2023-04-07T12:29:30.286Z,7.30
2023-04-07T12:33:52.347Z,7.60
2023-04-07T12:38:14.733Z,8.15
2023-04-07T12:42:36.924Z,7.65
2023-04-07T12:46:58.894Z,8.18
2023-04-07T12:51:21.352Z,7.05
2023-04-07T12:55:43.435Z,6.97
2023-04-07T13:00:06.624Z,8.13
2023-04-07T13:04:30.887Z,7.70
2023-04-07T13:08:52.996Z,8.55
2023-04-07T13:13:14.650Z,7.68
2023-04-07T13:17:36.965Z,7.68
2023-04-07T13:21:59.473Z,7.47
2023-04-07T13:26:21.365Z,9.13
2023-04-07T13:30:43.701Z,8.40
2023-04-07T13:35:06.159Z,7.88
2023-04-07T13:39:28.143Z,8.15
2023-04-07T13:43:50.933Z,8.95
2023-04-07T13:48:13.859Z,9.27
2023-04-07T13:52:35.875Z,8.00
2023-04-07T13:56:58.016Z,8.00
2023-04-07T14:01:20.335Z,7.80
2023-04-07T14:05:42.587Z,7.38
2023-04-07T14:10:05.148Z,7.80
2023-04-07T14:14:27.401Z,8.10
2023-04-07T14:18:49.738Z,7.28
2023-04-07T14:23:11.922Z,7.22
2023-04-07T14:27:34.009Z,7.32
2023-04-07T14:31:56.475Z,7.35
2023-04-07T14:36:18.379Z,5.82
2023-04-07T14:40:41.479Z,4.57
2023-04-07T14:45:04.759Z,4.47
2023-04-07T14:49:28.628Z,4.32
2023-04-07T14:53:56.102Z,4.95
2023-04-07T14:58:18.552Z,4.43
2023-04-07T15:02:40.651Z,4.55
2023-04-07T15:07:03.416Z,4.03
2023-04-07T15:11:26.473Z,4.30
2023-04-07T15:15:48.565Z,5.18
2023-04-07T15:20:10.752Z,4.85
2023-04-07T15:24:32.882Z,4.45
2023-04-07T15:28:54.892Z,4.20
2023-04-07T15:33:17.611Z,3.88
2023-04-07T15:37:39.453Z,4.13
2023-04-07T15:42:01.807Z,4.35
2023-04-07T15:46:23.761Z,4.40
2023-04-07T15:50:46.666Z,7.22
2023-04-07T15:55:09.379Z,5.05
2023-04-07T15:59:31.801Z,5.40
2023-04-07T16:03:54.441Z,4.72
2023-04-07T16:08:17.710Z,4.65
2023-04-07T16:12:40.618Z,5.18
2023-04-07T16:17:02.698Z,4.75
2023-04-07T16:21:24.708Z,4.80
2023-04-07T16:25:46.852Z,4.53
2023-04-07T16:30:11.135Z,5.15
2023-04-07T16:34:33.314Z,5.28
2023-04-07T16:38:57.908Z,4.05
2023-04-07T16:43:19.897Z,5.70
2023-04-07T16:47:44.647Z,4.78
2023-04-07T16:52:16.700Z,4.18
2023-04-07T16:56:39.415Z,4.75
2023-04-07T17:01:01.859Z,4.45
2023-04-07T17:05:24.280Z,4.28
2023-04-07T17:09:46.303Z,3.60
2023-04-07T17:14:08.610Z,4.82
2023-04-07T17:18:32.130Z,3.75
2023-04-07T17:22:53.978Z,4.30
2023-04-07T17:27:16.352Z,3.83
2023-04-07T17:31:38.187Z,4.78
2023-04-07T17:36:03.872Z,4.47
2023-04-07T17:40:25.991Z,7.28
2023-04-07T17:44:50.758Z,23.55
2023-04-07T17:49:12.858Z,4.75
2023-04-07T17:53:34.983Z,4.85
2023-04-07T17:58:01.041Z,4.60
2023-04-07T18:02:23.290Z,5.60
2023-04-07T18:06:46.100Z,5.57
2023-04-07T18:11:08.167Z,5.43
2023-04-07T18:15:30.231Z,4.95
2023-04-07T18:19:52.456Z,4.85
2023-04-07T18:24:14.331Z,4.97
2023-04-07T18:28:36.752Z,5.90
2023-04-07T18:32:58.570Z,4.93
2023-04-07T18:37:21.195Z,4.47
2023-04-07T18:41:45.557Z,4.80
2023-04-07T18:46:07.889Z,6.75
2023-04-07T18:50:30.267Z,6.20
2023-04-07T18:54:52.369Z,9.98
2023-04-07T18:59:14.274Z,7.43
2023-04-07T19:03:36.813Z,7.18
2023-04-07T19:07:59.057Z,6.45
2023-04-07T19:12:21.036Z,7.03
2023-04-07T19:16:44.686Z,6.38
2023-04-07T19:21:08.108Z,6.47
2023-04-07T19:25:31.024Z,6.68
2023-04-07T19:29:53.009Z,6.93
2023-04-07T19:34:15.258Z,5.80
2023-04-07T19:38:37.440Z,6.80
2023-04-07T19:42:59.990Z,7.22
2023-04-07T19:47:22.119Z,5.72
2023-04-07T19:51:44.271Z,6.07
2023-04-07T19:56:06.409Z,5.38
2023-04-07T20:00:31.625Z,6.22
2023-04-07T20:04:54.714Z,5.78
2023-04-07T20:09:16.989Z,4.93
2023-04-07T20:13:39.826Z,5.60
2023-04-07T20:18:01.851Z,4.95
2023-04-07T20:22:23.862Z,5.30
2023-04-07T20:26:46.877Z,4.43
2023-04-07T20:31:09.191Z,4.38
2023-04-07T20:35:31.113Z,3.40
2023-04-07T20:39:55.681Z,4.18
2023-04-07T20:44:18.540Z,4.28
2023-04-07T20:48:40.220Z,3.60
2023-04-07T20:53:02.664Z,4.10
2023-04-07T20:57:25.580Z,4.05
2023-04-07T21:01:48.145Z,4.10
2023-04-07T21:06:10.614Z,5.18
2023-04-07T21:10:32.625Z,4.47
2023-04-07T21:14:54.814Z,5.03
2023-04-07T21:19:16.777Z,4.32
2023-04-07T21:23:39.157Z,5.03
2023-04-07T21:28:01.332Z,3.65
2023-04-07T21:32:23.112Z,4.90
2023-04-07T21:36:45.238Z,4.30
2023-04-07T21:41:07.735Z,4.82
2023-04-07T21:45:29.861Z,4.63
2023-04-07T21:49:52.028Z,3.88
2023-04-07T21:54:14.166Z,3.35
2023-04-07T21:58:37.494Z,4.60
2023-04-07T22:02:59.714Z,3.65
2023-04-07T22:07:22.182Z,3.80
2023-04-07T22:11:44.116Z,3.50
2023-04-07T22:16:06.973Z,3.97
2023-04-07T22:20:30.965Z,4.22
2023-04-07T22:24:53.455Z,4.07
2023-04-07T22:29:15.864Z,4.68
2023-04-07T22:33:37.998Z,4.57
2023-04-07T22:37:59.674Z,4.07
2023-04-07T22:42:21.852Z,4.85
2023-04-07T22:46:44.273Z,4.65
2023-04-07T22:51:07.824Z,5.80
2023-04-07T22:55:30.341Z,4.88
2023-04-07T22:59:52.352Z,5.13
2023-04-07T23:04:14.258Z,5.88
2023-04-07T23:08:36.392Z,5.30
2023-04-07T23:13:01.690Z,5.80
2023-04-07T23:17:23.850Z,5.32
2023-04-07T23:21:46.097Z,5.82
2023-04-07T23:26:08.270Z,6.13
2023-04-07T23:30:30.631Z,6.05
2023-04-07T23:34:52.734Z,6.35
2023-04-07T23:39:14.891Z,6.05
2023-04-07T23:43:37.198Z,6.78
2023-04-07T23:47:59.260Z,6.63
2023-04-07T23:52:22.131Z,7.38
2023-04-07T23:56:44.153Z,6.15
